Flight Track Log - Related Links

Times and Time Zones

All times are in EDT time to prevent confusion due to time zone crossing. See the EJA929 flight status page for this flight to view local times or setup timezone preferences in your user account.

Time Position Orientation Groundspeed Altitude Reporting Facility
EDT Latitude Longitude Course Direction KTS MPH feet Rate Location/Type
Sun 11:51:18 AM 34.4278 -119.8297 137° Southeast 177 204 700  Level Los Angeles Center
Sun 11:52:33 AM 34.3792 -119.7744 137° Southeast 223 257 4,500 3,372 Climbing Los Angeles Center
Sun 11:53:35 AM 34.2886 -119.7275 157° South 275 316 8,400 2,903 Climbing Los Angeles Center
Sun 11:54:37 AM 34.2139 -119.6822 153° Southeast 294 338 10,500 1,268 Climbing Los Angeles Center
Sun 11:55:38 AM 34.1636 -119.6128 131° Southeast 345 397 11,000 244 Climbing Los Angeles Center
Sun 11:56:40 AM 34.0964 -119.5092 128° Southeast 387 445 11,000  Level Los Angeles Center
Sun 11:57:55 AM 34.0133 -119.3808 128° Southeast 403 464 11,000  Level Los Angeles Center
Sun 11:58:57 AM 33.9311 -119.2544 128° Southeast 400 460 11,000  Level Los Angeles Center
Sun 11:59:59 AM 33.8625 -119.1497 128° Southeast 400 460 11,000  Level Los Angeles Center
Sun 12:01:01 PM 33.7931 -119.0458 129° Southeast 401 461 11,000  Level Los Angeles Center
Sun 12:02:03 PM 33.7100 -118.9217 129° Southeast 399 459 11,000  Level Los Angeles Center
Sun 12:03:05 PM 33.6408 -118.8175 129° Southeast 401 461 11,000  Level Los Angeles Center
Sun 12:04:07 PM 33.5717 -118.7144 129° Southeast 401 461 11,000  Level Los Angeles Center
Sun 12:05:09 PM 33.4889 -118.5917 129° Southeast 399 459 11,000  Level Los Angeles Center
Sun 12:06:12 PM 33.4203 -118.4883 128° Southeast 401 461 11,000  Level Los Angeles Center
Sun 12:07:13 PM 33.3683 -118.3744 119° Southeast 405 466 11,000  Level Los Angeles Center
Sun 12:08:16 PM 33.3511 -118.2444 99° East 401 461 11,000  Level Los Angeles Center
Sun 12:09:18 PM 33.3361 -118.1325 99° East 345 397 11,000 -1,113 Level Los Angeles Center
Sun 12:10:20 PM 33.3219 -118.0197 99° East 294 338 8,700 -2,081 Descending Los Angeles Center
Sun 12:11:22 PM 33.3100 -117.9250 99° East 290 334 6,700 -1,694 Descending Los Angeles Center
Sun 12:12:24 PM 33.2972 -117.8325 99° East 287 330 5,200 -823 Descending Los Angeles Center
Sun 12:13:26 PM 33.2850 -117.7417 99° East 281 323 5,000 -87 Descending Los Angeles Center
Sun 12:14:42 PM 33.2667 -117.6167 100° East 277 319 5,000  Level Southern California TRACON
Sun 12:15:42 PM 33.2500 -117.5167 101° East 273 314 5,000 -150 Level Southern California TRACON
Sun 12:16:42 PM 33.2500 -117.4333 90° East 264 304 4,700 -250 Descending Southern California TRACON
Sun 12:17:42 PM 33.2333 -117.3500 103° East 278 320 4,500 -94 Descending Southern California TRACON
Sun 12:18:49 PM 33.2167 -117.2500 101° East 268 308 4,500  Level Southern California TRACON
Sun 12:19:43 PM 33.2167 -117.1833 90° East 222 255 4,500  Level Southern California TRACON
Sun 12:20:43 PM 33.2000 -117.1167 107° East 206 237 4,500 -250 Level Southern California TRACON
Sun 12:21:43 PM 33.1667 -117.0833 140° Southeast 182 209 4,000 -800 Descending Southern California TRACON
Sun 12:22:43 PM 33.1500 -117.1333 248° West 168 193 2,900 -1,050 Descending Southern California TRACON
Sun 12:23:43 PM 33.1500 -117.1833 270° West 162 186 1,900 -850 Descending Southern California TRACON
Sun 12:24:43 PM 33.1333 -117.2333 248° West 129 148 1,200 -700 Descending Southern California TRACON
Sun 12:25:43 PM 33.1333 -117.2667 270° West 126 145 500 -700 Descending Southern California TRACON

Login

Don't have an account? Register now (free) for customized features, flight alerts, and more!